Portada
METAR-TAF:

METAR-TAF

Aeroports :

Dodoma, Tanzània

latitud: 06-10S, longitud: 035-46E, altitud: 1119 m

Observació

L'informe es va fer fa 1 hora i 7 minuts, a les 16:00 UTC
Vent 5 kt del Est
Temperatura 25°C
Humitat 69%
Pressió 1016 hPa
Visibilitat 10 km o més
Núvols disperses a una alçada de 2500 ft
Escasses núvols a una alçada de 2600 ft, Cumulonimbus.

METAR: HTDO 311600Z 08005KT 9999 SCT025 FEW026CB 25/19 Q1016 NOSIG

Hora: 20:07 (17:07 UTC)

Pronòstic

L'informe es va fer fa 18 hores i 7 minuts, a les 23:00 UTC
Pronòstic vàlid del 31 a les 00 UTC al 31 a les 24 UTC
Vent 7 kt del Est
Visibilitat 10 km o més
Núvols disperses a una alçada de 2100 ft
Escasses núvols a una alçada de 2100 ft, Cumulonimbus.

TAF: HTDO 302300Z 3100/3124 08007KT 9999 SCT021 FEW021CB

Observacions i pronòstics meteorològics de més de 4000 aeroports (METAR i TAF).

Les estacions disponibles són els punts grocs i vermells al mapa.

Posi el ratolí al punt desitjat per veure el nom de l'estació.

Feu clic per veure les observacions i els pronòstics meteorològics.

Per canviar el mapa: feu clic els botons verds amb una creu de color negre per apropar; al botó verd amb un guió per allunyar la imatge; o en les fletxes verdes per a mapes adjacents.


METAR-TAF: